createdAt,value
2019-03-12T00:02:40.277Z,16.17
2019-03-12T00:07:45.642Z,17.17
2019-03-12T00:12:50.610Z,21.87
2019-03-12T00:17:56.049Z,19.53
2019-03-12T00:23:01.119Z,20.57
2019-03-12T00:28:06.068Z,19.90
2019-03-12T00:33:11.210Z,22.10
2019-03-12T00:38:16.227Z,19.23
2019-03-12T00:43:21.318Z,22.93
2019-03-12T00:48:26.375Z,25.30
2019-03-12T00:53:31.393Z,22.83
2019-03-12T00:58:36.445Z,23.53
2019-03-12T01:03:41.489Z,20.27
2019-03-12T01:08:46.586Z,17.70
2019-03-12T01:13:51.640Z,23.40
2019-03-12T01:18:56.693Z,20.87
2019-03-12T01:24:01.666Z,22.23
2019-03-12T01:29:06.800Z,19.03
2019-03-12T01:34:11.852Z,16.30
2019-03-12T01:39:16.907Z,16.37
2019-03-12T01:44:21.966Z,20.17
2019-03-12T01:49:27.013Z,14.33
2019-03-12T01:54:32.068Z,21.53
2019-03-12T01:59:37.123Z,23.17
2019-03-12T02:04:42.174Z,17.50
2019-03-12T02:09:47.196Z,12.37
2019-03-12T02:14:52.282Z,13.83
2019-03-12T02:19:57.334Z,14.53
2019-03-12T02:25:02.395Z,18.40
2019-03-12T02:30:11.004Z,17.73
2019-03-12T02:35:16.513Z,14.87
2019-03-12T02:40:21.542Z,19.77
2019-03-12T02:45:26.545Z,22.43
2019-03-12T02:50:31.652Z,17.37
2019-03-12T02:55:36.609Z,22.23
2019-03-12T03:00:41.624Z,21.43
2019-03-12T03:05:59.101Z,19.37
2019-03-12T03:11:04.167Z,22.17
2019-03-12T03:16:09.211Z,23.67
2019-03-12T03:21:14.164Z,21.17
2019-03-12T03:31:29.284Z,14.70
2019-03-12T03:36:34.336Z,19.43
2019-03-12T03:41:39.360Z,20.70
2019-03-12T03:46:44.445Z,15.97
2019-03-12T03:51:49.430Z,15.83
2019-03-12T03:56:54.436Z,23.80
2019-03-12T04:01:59.423Z,14.83
2019-03-12T04:07:04.661Z,24.13
2019-03-12T04:12:11.579Z,20.87
2019-03-12T04:17:16.691Z,21.97
2019-03-12T04:22:21.968Z,24.53
2019-03-12T04:27:26.998Z,24.90
2019-03-12T04:32:32.081Z,23.03
2019-03-12T04:37:37.234Z,20.60
2019-03-12T04:42:42.208Z,20.80
2019-03-12T04:47:48.385Z,16.10
2019-03-12T04:52:53.528Z,15.73
2019-03-12T04:57:59.579Z,22.47
2019-03-12T05:03:04.856Z,17.87
2019-03-12T05:08:10.219Z,15.00
2019-03-12T05:13:15.268Z,13.00
2019-03-12T05:18:20.531Z,18.43
2019-03-12T05:23:25.685Z,15.23
2019-03-12T05:28:30.655Z,15.77
2019-03-12T05:33:35.800Z,19.37
2019-03-12T05:38:40.844Z,18.77
2019-03-12T05:43:45.830Z,17.47
2019-03-12T05:48:50.951Z,17.93
2019-03-12T05:53:55.975Z,14.97
2019-03-12T05:59:01.058Z,22.30
2019-03-12T06:04:07.939Z,16.37
2019-03-12T06:09:13.008Z,16.23
2019-03-12T06:14:17.995Z,19.17
2019-03-12T06:19:23.115Z,20.40
2019-03-12T06:24:28.172Z,17.67
2019-03-12T06:29:33.224Z,26.27
2019-03-12T06:35:03.161Z,20.07
2019-03-12T06:40:21.116Z,19.63
2019-03-12T06:45:35.977Z,22.90
2019-03-12T06:51:03.177Z,17.17
2019-03-12T06:56:32.980Z,17.87
2019-03-12T07:01:56.872Z,19.63
2019-03-12T07:07:33.298Z,22.13
2019-03-12T07:13:02.997Z,27.40
2019-03-12T07:18:30.094Z,21.97
2019-03-12T07:23:57.133Z,26.23
2019-03-12T07:29:32.994Z,18.77
2019-03-12T07:34:52.512Z,20.63
2019-03-12T07:40:22.469Z,23.43
2019-03-12T07:45:34.569Z,20.17
2019-03-12T07:50:48.829Z,21.70
2019-03-12T07:56:11.102Z,24.23
2019-03-12T08:01:24.895Z,25.30
2019-03-12T08:06:46.798Z,20.23
2019-03-12T08:12:09.369Z,23.07
2019-03-12T08:17:42.297Z,21.20
2019-03-12T08:23:04.834Z,20.47
2019-03-12T08:28:37.867Z,23.17
2019-03-12T08:33:52.143Z,27.90
2019-03-12T08:39:17.434Z,25.90
2019-03-12T08:44:41.496Z,23.37
2019-03-12T08:50:06.867Z,22.10
2019-03-12T08:55:24.237Z,18.23
2019-03-12T09:01:06.533Z,19.17
2019-03-12T09:06:36.519Z,15.27
2019-03-12T09:12:00.470Z,19.57
2019-03-12T09:17:20.680Z,20.33
2019-03-12T09:22:43.479Z,17.33
2019-03-12T09:28:36.636Z,17.87
2019-03-12T09:34:05.036Z,15.53
2019-03-12T09:39:31.382Z,14.53
2019-03-12T09:45:11.796Z,13.60
2019-03-12T09:50:38.834Z,16.17
2019-03-12T09:56:08.731Z,11.83
2019-03-12T10:01:34.512Z,11.67
2019-03-12T10:06:58.811Z,14.37
2019-03-12T10:12:24.890Z,10.40
2019-03-12T10:17:49.813Z,9.20
2019-03-12T10:23:12.754Z,9.83
2019-03-12T10:28:28.102Z,10.13
2019-03-12T10:34:04.308Z,8.30
2019-03-12T10:40:03.827Z,7.77
2019-03-12T10:45:18.780Z,12.30
2019-03-12T10:50:24.189Z,8.67
2019-03-12T10:55:29.503Z,11.50
2019-03-12T11:00:35.957Z,6.70
2019-03-12T11:05:46.023Z,9.93
2019-03-12T11:10:47.699Z,8.03
2019-03-12T11:15:54.138Z,11.93
2019-03-12T11:20:59.132Z,8.93
2019-03-12T11:26:04.103Z,7.87
2019-03-12T11:31:09.423Z,6.83
2019-03-12T11:36:14.451Z,7.30
2019-03-12T11:41:20.119Z,7.67
2019-03-12T11:46:25.233Z,7.23
2019-03-12T11:51:30.229Z,11.30
2019-03-12T11:56:35.230Z,9.10
2019-03-12T12:01:40.418Z,10.50
2019-03-12T12:06:45.390Z,10.00
2019-03-12T12:11:52.095Z,4.87
2019-03-12T12:16:57.657Z,7.43
2019-03-12T12:22:02.638Z,7.97
2019-03-12T12:27:07.710Z,6.60
2019-03-12T12:32:12.693Z,6.37
2019-03-12T12:37:17.660Z,4.67
2019-03-12T12:42:22.660Z,7.17
2019-03-12T12:47:27.811Z,8.73
2019-03-12T12:52:32.787Z,6.43
2019-03-12T12:57:37.955Z,4.57
2019-03-12T13:02:42.926Z,9.40
2019-03-12T13:07:48.417Z,7.80
2019-03-12T13:12:53.398Z,8.63
2019-03-12T13:17:58.363Z,6.87
2019-03-12T13:23:05.516Z,7.50
2019-03-12T13:28:10.484Z,6.13
2019-03-12T13:33:15.508Z,5.90
2019-03-12T13:38:20.496Z,5.63
2019-03-12T13:43:25.530Z,5.60
2019-03-12T13:48:31.167Z,4.87
2019-03-12T13:53:55.314Z,5.87
2019-03-12T13:59:01.173Z,4.20
2019-03-12T14:04:10.720Z,4.33
2019-03-12T14:09:12.821Z,6.53
2019-03-12T14:14:17.804Z,6.00
2019-03-12T14:19:22.977Z,5.50
2019-03-12T14:24:28.216Z,7.53
2019-03-12T14:29:33.190Z,6.07
2019-03-12T14:34:38.175Z,5.83
2019-03-12T14:39:43.135Z,6.73
2019-03-12T14:44:48.232Z,5.67
2019-03-12T14:49:53.150Z,4.73
2019-03-12T14:54:58.128Z,6.27
2019-03-12T15:00:03.105Z,4.23
2019-03-12T15:05:08.624Z,6.43
2019-03-12T15:10:14.001Z,4.10
2019-03-12T15:15:18.980Z,3.43
2019-03-12T15:20:24.015Z,4.03
2019-03-12T15:25:30.165Z,5.43
2019-03-12T15:30:35.120Z,3.67
2019-03-12T15:35:40.084Z,3.03
2019-03-12T15:40:45.065Z,4.93
2019-03-12T15:45:50.088Z,4.13
2019-03-12T15:50:55.045Z,3.67
2019-03-12T15:56:00.023Z,3.33
2019-03-12T16:01:04.979Z,4.97
2019-03-12T16:06:09.965Z,4.63
2019-03-12T16:11:14.966Z,4.63
2019-03-12T16:16:19.986Z,3.50
2019-03-12T16:21:24.948Z,3.20
2019-03-12T16:26:29.919Z,5.73
2019-03-12T16:31:34.986Z,2.73
2019-03-12T16:36:40.002Z,4.57
2019-03-12T16:41:45.041Z,3.23
2019-03-12T16:46:49.999Z,3.87
2019-03-12T16:51:56.095Z,3.50
2019-03-12T16:57:01.070Z,3.03
2019-03-12T17:02:06.344Z,6.03
2019-03-12T17:07:11.320Z,5.70
2019-03-12T17:12:16.283Z,5.57
2019-03-12T17:17:22.425Z,2.77
2019-03-12T17:22:27.373Z,1.80
2019-03-12T17:27:32.554Z,5.73
2019-03-12T17:32:37.555Z,5.33
2019-03-12T17:37:43.140Z,2.10
2019-03-12T17:42:48.191Z,4.53
2019-03-12T17:47:53.293Z,4.07
2019-03-12T17:53:00.037Z,6.27
2019-03-12T17:58:05.504Z,4.60
2019-03-12T18:03:10.485Z,3.77
2019-03-12T18:08:15.477Z,5.13
2019-03-12T18:13:20.435Z,2.70
2019-03-12T18:18:25.444Z,4.97
2019-03-12T18:23:30.466Z,4.33
2019-03-12T18:28:35.487Z,2.23
2019-03-12T18:33:40.574Z,4.67
2019-03-12T18:38:45.534Z,2.20
2019-03-12T18:43:50.511Z,5.53
2019-03-12T18:48:55.492Z,1.47
2019-03-12T18:54:00.472Z,5.47
2019-03-12T18:59:05.472Z,4.83
2019-03-12T19:04:10.484Z,4.93
2019-03-12T19:09:15.470Z,4.03
2019-03-12T19:14:20.450Z,4.87
2019-03-12T19:19:25.626Z,5.53
2019-03-12T19:24:30.806Z,1.87
2019-03-12T19:29:37.590Z,4.47
2019-03-12T19:34:43.061Z,3.20
2019-03-12T19:39:47.991Z,3.37
2019-03-12T19:44:52.972Z,4.83
2019-03-12T19:49:57.966Z,4.40
2019-03-12T19:55:02.916Z,2.17
2019-03-12T20:00:10.131Z,3.43
2019-03-12T20:05:15.496Z,2.80
2019-03-12T20:11:03.736Z,4.20
2019-03-12T20:17:09.569Z,2.10
2019-03-12T20:23:00.774Z,3.37
2019-03-12T20:28:42.184Z,2.90
2019-03-12T20:34:23.383Z,3.30
2019-03-12T20:40:24.793Z,5.13
2019-03-12T20:46:09.131Z,2.40
2019-03-12T20:52:08.711Z,4.77
2019-03-12T20:57:53.592Z,5.43
2019-03-12T21:03:44.480Z,4.57
2019-03-12T21:09:26.091Z,3.93
2019-03-12T21:15:04.771Z,5.23
2019-03-12T21:20:38.719Z,4.03
2019-03-12T21:26:19.766Z,5.27
2019-03-12T21:31:24.850Z,6.80
2019-03-12T21:36:31.101Z,1.57
2019-03-12T21:41:36.323Z,0.30
2019-03-12T21:46:43.772Z,0.60
2019-03-12T21:51:47.904Z,0.53
2019-03-12T21:56:52.874Z,1.33
2019-03-12T22:01:57.848Z,0.93
2019-03-12T22:07:02.916Z,1.10
2019-03-12T22:12:08.034Z,1.17
2019-03-12T22:17:13.004Z,0.50
2019-03-12T22:22:40.046Z,2.20
2019-03-12T22:27:45.051Z,2.20
2019-03-12T22:32:51.891Z,0.60
2019-03-12T22:37:57.083Z,2.73
2019-03-12T22:43:02.093Z,1.40
2019-03-12T22:48:08.446Z,1.30
2019-03-12T22:53:13.413Z,1.77
2019-03-12T22:58:18.612Z,2.73
2019-03-12T23:03:23.603Z,4.13
2019-03-12T23:08:28.570Z,1.50
2019-03-12T23:13:33.796Z,2.10
2019-03-12T23:18:39.267Z,3.37
2019-03-12T23:23:44.309Z,2.87
2019-03-12T23:28:49.284Z,1.57
2019-03-12T23:33:54.265Z,6.90
2019-03-12T23:38:59.354Z,1.77
2019-03-12T23:44:04.635Z,3.77
2019-03-12T23:49:09.725Z,1.97
2019-03-12T23:54:14.696Z,4.73
2019-03-12T23:59:23.334Z,7.20
